sensor_id;sensor_type;location;lat;lon;timestamp;pressure;altitude;pressure_sealevel;temperature;humidity
66945;BME280;53853;51.982;5.928;2023-03-14T00:01:32;98783.25;;;13.00;71.69
66945;BME280;53853;51.982;5.928;2023-03-14T00:04:05;98772.56;;;13.00;71.09
66945;BME280;53853;51.982;5.928;2023-03-14T00:06:35;98775.22;;;13.00;71.09
66945;BME280;53853;51.982;5.928;2023-03-14T00:09:05;98768.25;;;12.99;71.50
66945;BME280;53853;51.982;5.928;2023-03-14T00:11:35;98772.56;;;13.00;71.61
66945;BME280;53853;51.982;5.928;2023-03-14T00:14:05;98772.56;;;13.00;71.81
66945;BME280;53853;51.982;5.928;2023-03-14T00:16:35;98773.41;;;13.01;70.56
66945;BME280;53853;51.982;5.928;2023-03-14T00:19:07;98775.22;;;13.00;70.52
66945;BME280;53853;51.982;5.928;2023-03-14T00:21:37;98778.38;;;12.97;70.78
66945;BME280;53853;51.982;5.928;2023-03-14T00:24:08;98776.13;;;12.94;70.67
66945;BME280;53853;51.982;5.928;2023-03-14T00:26:38;98788.91;;;12.85;71.41
66945;BME280;53853;51.982;5.928;2023-03-14T00:29:07;98785.69;;;12.77;71.84
66945;BME280;53853;51.982;5.928;2023-03-14T00:31:38;98788.59;;;12.68;71.78
66945;BME280;53853;51.982;5.928;2023-03-14T00:34:12;98784.56;;;12.59;72.20
66945;BME280;53853;51.982;5.928;2023-03-14T00:36:42;98774.72;;;12.53;72.56
66945;BME280;53853;51.982;5.928;2023-03-14T00:39:13;98785.81;;;12.50;72.45
66945;BME280;53853;51.982;5.928;2023-03-14T00:41:43;98792.41;;;12.47;70.80
66945;BME280;53853;51.982;5.928;2023-03-14T00:44:13;98786.72;;;12.37;71.41
66945;BME280;53853;51.982;5.928;2023-03-14T00:46:43;98796.34;;;12.38;71.36
66945;BME280;53853;51.982;5.928;2023-03-14T00:49:15;98796.56;;;12.37;71.18
66945;BME280;53853;51.982;5.928;2023-03-14T00:51:45;98794.09;;;12.35;71.41
66945;BME280;53853;51.982;5.928;2023-03-14T00:54:15;98788.97;;;12.33;70.37
66945;BME280;53853;51.982;5.928;2023-03-14T00:56:45;98799.47;;;12.28;70.32
66945;BME280;53853;51.982;5.928;2023-03-14T00:59:16;98790.88;;;12.20;69.62
66945;BME280;53853;51.982;5.928;2023-03-14T01:01:46;98781.84;;;12.14;70.12
66945;BME280;53853;51.982;5.928;2023-03-14T01:04:18;98786.81;;;12.10;70.13
66945;BME280;53853;51.982;5.928;2023-03-14T01:06:49;98787.00;;;12.09;69.72
66945;BME280;53853;51.982;5.928;2023-03-14T01:09:19;98794.81;;;12.04;70.19
66945;BME280;53853;51.982;5.928;2023-03-14T01:11:48;98797.94;;;12.01;70.47
66945;BME280;53853;51.982;5.928;2023-03-14T01:14:19;98798.72;;;12.01;70.18
66945;BME280;53853;51.982;5.928;2023-03-14T01:16:49;98793.81;;;11.98;70.54
66945;BME280;53853;51.982;5.928;2023-03-14T01:19:21;98795.84;;;12.03;70.23
66945;BME280;53853;51.982;5.928;2023-03-14T01:21:51;98807.13;;;12.05;70.47
66945;BME280;53853;51.982;5.928;2023-03-14T01:24:21;98802.81;;;12.04;70.55
66945;BME280;53853;51.982;5.928;2023-03-14T01:26:51;98800.38;;;12.02;70.37
66945;BME280;53853;51.982;5.928;2023-03-14T01:29:21;98795.66;;;12.04;69.44
66945;BME280;53853;51.982;5.928;2023-03-14T01:31:51;98802.00;;;12.03;69.90
66945;BME280;53853;51.982;5.928;2023-03-14T01:34:23;98801.00;;;12.04;69.66
66945;BME280;53853;51.982;5.928;2023-03-14T01:36:53;98797.28;;;12.05;69.17
66945;BME280;53853;51.982;5.928;2023-03-14T01:39:23;98796.84;;;12.08;69.12
66945;BME280;53853;51.982;5.928;2023-03-14T01:41:53;98807.75;;;12.07;69.16
66945;BME280;53853;51.982;5.928;2023-03-14T01:44:23;98805.50;;;12.04;68.39
66945;BME280;53853;51.982;5.928;2023-03-14T01:46:53;98811.47;;;12.06;68.92
66945;BME280;53853;51.982;5.928;2023-03-14T01:49:27;98810.03;;;11.96;69.22
66945;BME280;53853;51.982;5.928;2023-03-14T01:52:08;98806.31;;;11.91;69.69
66945;BME280;53853;51.982;5.928;2023-03-14T01:54:41;98805.31;;;11.85;69.92
66945;BME280;53853;51.982;5.928;2023-03-14T01:57:16;98794.03;;;11.83;70.37
66945;BME280;53853;51.982;5.928;2023-03-14T01:59:51;98802.25;;;11.82;71.77
66945;BME280;53853;51.982;5.928;2023-03-14T02:02:23;98797.75;;;11.75;73.72
66945;BME280;53853;51.982;5.928;2023-03-14T02:04:57;98799.59;;;11.62;75.20
66945;BME280;53853;51.982;5.928;2023-03-14T02:07:37;98784.84;;;11.46;76.12
66945;BME280;53853;51.982;5.928;2023-03-14T02:10:16;98786.47;;;11.33;77.06
66945;BME280;53853;51.982;5.928;2023-03-14T02:12:48;98775.63;;;11.21;77.75
66945;BME280;53853;51.982;5.928;2023-03-14T02:15:50;98784.03;;;11.18;78.11
66945;BME280;53853;51.982;5.928;2023-03-14T02:18:56;98793.84;;;11.11;78.72
66945;BME280;53853;51.982;5.928;2023-03-14T02:22:05;98799.59;;;11.01;79.47
66945;BME280;53853;51.982;5.928;2023-03-14T02:24:57;98796.06;;;10.94;80.00
66945;BME280;53853;51.982;5.928;2023-03-14T02:27:33;98791.56;;;10.88;80.33
66945;BME280;53853;51.982;5.928;2023-03-14T02:30:06;98795.84;;;10.82;80.41
66945;BME280;53853;51.982;5.928;2023-03-14T02:32:43;98794.00;;;10.83;80.90
66945;BME280;53853;51.982;5.928;2023-03-14T02:35:17;98791.34;;;10.76;80.49
66945;BME280;53853;51.982;5.928;2023-03-14T02:37:51;98794.41;;;10.73;80.97
66945;BME280;53853;51.982;5.928;2023-03-14T02:40:24;98786.41;;;10.66;80.90
66945;BME280;53853;51.982;5.928;2023-03-14T02:42:56;98782.69;;;10.61;81.16
66945;BME280;53853;51.982;5.928;2023-03-14T02:45:36;98780.00;;;10.61;81.52
66945;BME280;53853;51.982;5.928;2023-03-14T02:48:11;98775.72;;;10.60;81.73
66945;BME280;53853;51.982;5.928;2023-03-14T02:50:44;98775.72;;;10.60;81.79
66945;BME280;53853;51.982;5.928;2023-03-14T02:53:17;98773.69;;;10.62;81.64
66945;BME280;53853;51.982;5.928;2023-03-14T02:55:49;98772.66;;;10.63;81.73
66945;BME280;53853;51.982;5.928;2023-03-14T02:58:25;98779.63;;;10.64;81.44
66945;BME280;53853;51.982;5.928;2023-03-14T03:01:03;98779.22;;;10.67;81.58
66945;BME280;53853;51.982;5.928;2023-03-14T03:03:33;98784.75;;;10.72;81.30
66945;BME280;53853;51.982;5.928;2023-03-14T03:06:03;98780.69;;;10.76;81.51
66945;BME280;53853;51.982;5.928;2023-03-14T03:08:33;98778.41;;;10.80;80.51
66945;BME280;53853;51.982;5.928;2023-03-14T03:11:04;98769.41;;;10.81;80.29
66945;BME280;53853;51.982;5.928;2023-03-14T03:13:37;98758.56;;;10.82;80.14
66945;BME280;53853;51.982;5.928;2023-03-14T03:16:08;98764.50;;;10.84;79.68
66945;BME280;53853;51.982;5.928;2023-03-14T03:18:40;98764.50;;;10.84;79.83
66945;BME280;53853;51.982;5.928;2023-03-14T03:21:10;98761.22;;;10.82;79.35
66945;BME280;53853;51.982;5.928;2023-03-14T03:23:40;98758.75;;;10.81;79.46
66945;BME280;53853;51.982;5.928;2023-03-14T03:26:10;98753.63;;;10.79;79.47
66945;BME280;53853;51.982;5.928;2023-03-14T03:28:43;98749.09;;;10.80;79.14
66945;BME280;53853;51.982;5.928;2023-03-14T03:31:14;98754.44;;;10.80;78.98
66945;BME280;53853;51.982;5.928;2023-03-14T03:33:44;98748.31;;;10.79;78.97
66945;BME280;53853;51.982;5.928;2023-03-14T03:36:14;98753.22;;;10.82;79.18
66945;BME280;53853;51.982;5.928;2023-03-14T03:38:44;98742.38;;;10.84;78.94
66945;BME280;53853;51.982;5.928;2023-03-14T03:41:14;98746.69;;;10.85;78.09
66945;BME280;53853;51.982;5.928;2023-03-14T03:43:46;98741.97;;;10.87;78.34
66945;BME280;53853;51.982;5.928;2023-03-14T03:46:17;98743.81;;;10.86;77.98
66945;BME280;53853;51.982;5.928;2023-03-14T03:48:47;98737.44;;;10.87;77.82
66945;BME280;53853;51.982;5.928;2023-03-14T03:51:18;98734.78;;;10.87;77.84
66945;BME280;53853;51.982;5.928;2023-03-14T03:53:48;98746.06;;;10.90;77.96
66945;BME280;53853;51.982;5.928;2023-03-14T03:56:25;98748.50;;;10.91;77.78
66945;BME280;53853;51.982;5.928;2023-03-14T03:58:57;98741.97;;;10.94;77.24
66945;BME280;53853;51.982;5.928;2023-03-14T04:01:27;98744.63;;;10.94;75.88
66945;BME280;53853;51.982;5.928;2023-03-14T04:03:59;98748.94;;;10.95;75.97
66945;BME280;53853;51.982;5.928;2023-03-14T04:06:29;98752.81;;;10.92;76.04
66945;BME280;53853;51.982;5.928;2023-03-14T04:09:01;98747.09;;;10.95;76.39
66945;BME280;53853;51.982;5.928;2023-03-14T04:11:49;98742.38;;;10.97;76.30
66945;BME280;53853;51.982;5.928;2023-03-14T04:14:24;98746.88;;;10.97;75.66
66945;BME280;53853;51.982;5.928;2023-03-14T04:17:06;98734.16;;;10.99;75.89
66945;BME280;53853;51.982;5.928;2023-03-14T04:19:36;98725.34;;;10.98;76.13
66945;BME280;53853;51.982;5.928;2023-03-14T04:22:06;98735.00;;;10.99;75.67
66945;BME280;53853;51.982;5.928;2023-03-14T04:24:45;98735.22;;;10.98;75.59
66945;BME280;53853;51.982;5.928;2023-03-14T04:27:15;98716.56;;;10.98;75.43
66945;BME280;53853;51.982;5.928;2023-03-14T04:29:49;98721.69;;;10.99;75.55
66945;BME280;53853;51.982;5.928;2023-03-14T04:32:26;98727.81;;;11.00;75.57
66945;BME280;53853;51.982;5.928;2023-03-14T04:34:58;98720.63;;;11.00;75.90
66945;BME280;53853;51.982;5.928;2023-03-14T04:37:28;98718.81;;;11.01;75.93
66945;BME280;53853;51.982;5.928;2023-03-14T04:39:58;98711.41;;;11.03;75.27
66945;BME280;53853;51.982;5.928;2023-03-14T04:42:32;98722.69;;;11.05;75.54
66945;BME280;53853;51.982;5.928;2023-03-14T04:45:05;98716.34;;;11.06;74.86
66945;BME280;53853;51.982;5.928;2023-03-14T04:47:36;98727.00;;;11.06;75.12
66945;BME280;53853;51.982;5.928;2023-03-14T04:50:09;98718.81;;;11.08;74.57
66945;BME280;53853;51.982;5.928;2023-03-14T04:52:39;98718.59;;;11.09;75.23
66945;BME280;53853;51.982;5.928;2023-03-14T04:55:09;98708.75;;;11.10;74.70
66945;BME280;53853;51.982;5.928;2023-03-14T04:57:39;98706.69;;;11.12;74.78
66945;BME280;53853;51.982;5.928;2023-03-14T05:00:13;98708.13;;;11.14;74.03
66945;BME280;53853;51.982;5.928;2023-03-14T05:03:08;98702.81;;;11.14;74.33
66945;BME280;53853;51.982;5.928;2023-03-14T05:05:49;98713.06;;;11.17;74.12
66945;BME280;53853;51.982;5.928;2023-03-14T05:08:35;98707.13;;;11.15;73.70
66945;BME280;53853;51.982;5.928;2023-03-14T05:11:35;98700.34;;;11.13;74.00
66945;BME280;53853;51.982;5.928;2023-03-14T05:14:28;98705.88;;;11.11;73.99
66945;BME280;53853;51.982;5.928;2023-03-14T05:17:23;98702.59;;;11.09;74.37
66945;BME280;53853;51.982;5.928;2023-03-14T05:20:16;98700.53;;;11.11;74.66
66945;BME280;53853;51.982;5.928;2023-03-14T05:23:09;98699.94;;;11.09;74.06
66945;BME280;53853;51.982;5.928;2023-03-14T05:25:51;98702.81;;;11.08;74.53
66945;BME280;53853;51.982;5.928;2023-03-14T05:28:35;98696.66;;;11.07;74.87
66945;BME280;53853;51.982;5.928;2023-03-14T05:31:18;98698.09;;;11.03;75.01
66945;BME280;53853;51.982;5.928;2023-03-14T05:34:20;98704.66;;;11.00;75.62
66945;BME280;53853;51.982;5.928;2023-03-14T05:37:03;98700.16;;;11.01;75.60
66945;BME280;53853;51.982;5.928;2023-03-14T05:39:40;98691.53;;;10.99;75.87
66945;BME280;53853;51.982;5.928;2023-03-14T05:42:28;98692.56;;;10.98;75.98
66945;BME280;53853;51.982;5.928;2023-03-14T05:45:11;98696.84;;;10.99;76.16
66945;BME280;53853;51.982;5.928;2023-03-14T05:47:59;98692.16;;;11.01;76.36
66945;BME280;53853;51.982;5.928;2023-03-14T05:50:53;98698.31;;;11.01;76.16
66945;BME280;53853;51.982;5.928;2023-03-14T05:53:31;98700.78;;;10.96;76.44
66945;BME280;53853;51.982;5.928;2023-03-14T05:56:33;98695.44;;;10.90;76.53
66945;BME280;53853;51.982;5.928;2023-03-14T05:59:26;98692.34;;;10.86;77.05
66945;BME280;53853;51.982;5.928;2023-03-14T06:02:04;98689.28;;;10.82;77.60
66945;BME280;53853;51.982;5.928;2023-03-14T06:04:48;98687.22;;;10.84;77.97
66945;BME280;53853;51.982;5.928;2023-03-14T06:07:21;98687.22;;;10.84;78.15
66945;BME280;53853;51.982;5.928;2023-03-14T06:09:51;98694.59;;;10.82;78.33
66945;BME280;53853;51.982;5.928;2023-03-14T06:12:21;98686.81;;;10.81;78.21
66945;BME280;53853;51.982;5.928;2023-03-14T06:14:51;98690.28;;;10.81;78.38
66945;BME280;53853;51.982;5.928;2023-03-14T06:17:21;98696.25;;;10.83;78.42
66945;BME280;53853;51.982;5.928;2023-03-14T06:20:02;98694.19;;;10.85;78.82
66945;BME280;53853;51.982;5.928;2023-03-14T06:22:35;98700.34;;;10.86;78.97
66945;BME280;53853;51.982;5.928;2023-03-14T06:25:06;98690.53;;;10.86;79.10
66945;BME280;53853;51.982;5.928;2023-03-14T06:27:37;98691.34;;;10.87;79.16
66945;BME280;53853;51.982;5.928;2023-03-14T06:30:08;98691.53;;;10.85;79.38
66945;BME280;53853;51.982;5.928;2023-03-14T06:32:39;98700.75;;;10.83;79.65
66945;BME280;53853;51.982;5.928;2023-03-14T06:35:11;98692.53;;;10.84;80.01
66945;BME280;53853;51.982;5.928;2023-03-14T06:37:46;98689.88;;;10.84;79.99
66945;BME280;53853;51.982;5.928;2023-03-14T06:40:16;98687.44;;;10.83;80.32
66945;BME280;53853;51.982;5.928;2023-03-14T06:43:00;98690.94;;;10.83;80.63
66945;BME280;53853;51.982;5.928;2023-03-14T06:45:32;98688.88;;;10.85;80.66
66945;BME280;53853;51.982;5.928;2023-03-14T06:48:03;98695.84;;;10.86;80.89
66945;BME280;53853;51.982;5.928;2023-03-14T06:50:41;98689.47;;;10.87;81.07
66945;BME280;53853;51.982;5.928;2023-03-14T06:53:14;98695.44;;;10.90;81.05
66945;BME280;53853;51.982;5.928;2023-03-14T06:55:44;98693.19;;;10.93;81.38
66945;BME280;53853;51.982;5.928;2023-03-14T06:58:17;98692.13;;;10.94;81.01
66945;BME280;53853;51.982;5.928;2023-03-14T07:00:47;98694.81;;;10.94;81.27
66945;BME280;53853;51.982;5.928;2023-03-14T07:03:22;98695.22;;;10.98;81.40
66945;BME280;53853;51.982;5.928;2023-03-14T07:05:55;98705.47;;;11.01;81.11
66945;BME280;53853;51.982;5.928;2023-03-14T07:08:27;98694.22;;;11.05;81.26
66945;BME280;53853;51.982;5.928;2023-03-14T07:10:57;98701.78;;;11.09;81.00
66945;BME280;53853;51.982;5.928;2023-03-14T07:13:27;98702.19;;;11.12;81.34
66945;BME280;53853;51.982;5.928;2023-03-14T07:16:05;98711.41;;;11.16;81.44
66945;BME280;53853;51.982;5.928;2023-03-14T07:18:37;98710.78;;;11.21;81.32
66945;BME280;53853;51.982;5.928;2023-03-14T07:21:08;98723.50;;;11.19;80.78
66945;BME280;53853;51.982;5.928;2023-03-14T07:23:41;98725.78;;;11.15;81.21
66945;BME280;53853;51.982;5.928;2023-03-14T07:26:13;98733.97;;;11.14;81.03
66945;BME280;53853;51.982;5.928;2023-03-14T07:28:48;98735.59;;;11.08;81.54
66945;BME280;53853;51.982;5.928;2023-03-14T07:31:20;98791.38;;;11.03;81.74
66945;BME280;53853;51.982;5.928;2023-03-14T07:33:50;98787.66;;;10.84;78.04
66945;BME280;53853;51.982;5.928;2023-03-14T07:36:22;98796.84;;;10.68;78.31
66945;BME280;53853;51.982;5.928;2023-03-14T07:38:54;98799.91;;;10.65;79.21
66945;BME280;53853;51.982;5.928;2023-03-14T07:41:35;98807.06;;;10.58;80.23
66945;BME280;53853;51.982;5.928;2023-03-14T07:44:24;98832.84;;;10.44;79.00
66945;BME280;53853;51.982;5.928;2023-03-14T07:46:54;98842.94;;;10.27;79.36
66945;BME280;53853;51.982;5.928;2023-03-14T07:49:24;98864.38;;;10.12;79.01
66945;BME280;53853;51.982;5.928;2023-03-14T07:51:53;98860.78;;;9.91;79.70
66945;BME280;53853;51.982;5.928;2023-03-14T07:54:26;98867.78;;;9.71;81.52
66945;BME280;53853;51.982;5.928;2023-03-14T07:56:56;98882.41;;;9.60;82.18
66945;BME280;53853;51.982;5.928;2023-03-14T07:59:27;98880.72;;;9.52;83.09
66945;BME280;53853;51.982;5.928;2023-03-14T08:01:57;98886.34;;;9.42;83.59
66945;BME280;53853;51.982;5.928;2023-03-14T08:04:27;98902.16;;;9.29;84.08
66945;BME280;53853;51.982;5.928;2023-03-14T08:06:57;98907.78;;;9.19;84.32
66945;BME280;53853;51.982;5.928;2023-03-14T08:09:29;98923.31;;;9.16;84.80
66945;BME280;53853;51.982;5.928;2023-03-14T08:11:59;98935.03;;;9.06;84.17
66945;BME280;53853;51.982;5.928;2023-03-14T08:14:29;98940.22;;;8.93;84.12
66945;BME280;53853;51.982;5.928;2023-03-14T08:16:59;98941.31;;;8.84;84.51
66945;BME280;53853;51.982;5.928;2023-03-14T08:19:29;98949.03;;;8.79;84.48
66945;BME280;53853;51.982;5.928;2023-03-14T08:21:59;98960.03;;;8.76;84.91
66945;BME280;53853;51.982;5.928;2023-03-14T08:24:32;98960.22;;;8.74;84.85
66945;BME280;53853;51.982;5.928;2023-03-14T08:27:01;98969.63;;;8.77;85.33
66945;BME280;53853;51.982;5.928;2023-03-14T08:29:32;98976.41;;;8.79;85.44
66945;BME280;53853;51.982;5.928;2023-03-14T08:32:01;98990.31;;;8.81;85.50
66945;BME280;53853;51.982;5.928;2023-03-14T08:34:33;98980.16;;;8.85;85.50
66945;BME280;53853;51.982;5.928;2023-03-14T08:37:04;99006.16;;;8.89;85.54
66945;BME280;53853;51.982;5.928;2023-03-14T08:39:37;99026.31;;;8.84;84.32
66945;BME280;53853;51.982;5.928;2023-03-14T08:42:07;99029.09;;;8.76;84.39
66945;BME280;53853;51.982;5.928;2023-03-14T08:44:37;99045.53;;;8.56;82.62
66945;BME280;53853;51.982;5.928;2023-03-14T08:47:06;99053.69;;;8.31;81.75
66945;BME280;53853;51.982;5.928;2023-03-14T08:49:36;99080.50;;;8.22;82.42
66945;BME280;53853;51.982;5.928;2023-03-14T08:52:06;99100.28;;;8.11;82.70
66945;BME280;53853;51.982;5.928;2023-03-14T08:54:39;99120.56;;;8.04;83.13
66945;BME280;53853;51.982;5.928;2023-03-14T08:57:09;99132.88;;;7.96;82.70
66945;BME280;53853;51.982;5.928;2023-03-14T08:59:38;99147.19;;;7.87;81.46
66945;BME280;53853;51.982;5.928;2023-03-14T09:02:10;99147.75;;;7.74;80.60
66945;BME280;53853;51.982;5.928;2023-03-14T09:04:40;99147.81;;;7.58;79.33
66945;BME280;53853;51.982;5.928;2023-03-14T09:07:10;99164.78;;;7.49;79.31
66945;BME280;53853;51.982;5.928;2023-03-14T09:09:43;99184.31;;;7.48;80.43
66945;BME280;53853;51.982;5.928;2023-03-14T09:12:13;99194.09;;;7.47;81.52
66945;BME280;53853;51.982;5.928;2023-03-14T09:14:43;99207.53;;;7.37;81.15
66945;BME280;53853;51.982;5.928;2023-03-14T09:17:13;99222.78;;;7.35;82.14
66945;BME280;53853;51.982;5.928;2023-03-14T09:19:42;99231.72;;;7.26;80.88
66945;BME280;53853;51.982;5.928;2023-03-14T09:22:12;99245.00;;;7.18;80.42
66945;BME280;53853;51.982;5.928;2023-03-14T09:24:45;99260.41;;;7.14;80.51
66945;BME280;53853;51.982;5.928;2023-03-14T09:27:15;99257.44;;;7.09;80.14
66945;BME280;53853;51.982;5.928;2023-03-14T09:29:44;99270.84;;;7.07;80.68
66945;BME280;53853;51.982;5.928;2023-03-14T09:32:14;99278.78;;;7.07;80.05
66945;BME280;53853;51.982;5.928;2023-03-14T09:34:44;99292.84;;;7.16;80.17
66945;BME280;53853;51.982;5.928;2023-03-14T09:37:14;99299.16;;;7.23;79.18
66945;BME280;53853;51.982;5.928;2023-03-14T09:39:49;99307.91;;;7.32;79.08
66945;BME280;53853;51.982;5.928;2023-03-14T09:42:22;99327.94;;;7.35;76.46
66945;BME280;53853;51.982;5.928;2023-03-14T09:44:56;99348.81;;;7.38;77.02
66945;BME280;53853;51.982;5.928;2023-03-14T09:47:27;99354.94;;;7.38;76.96
66945;BME280;53853;51.982;5.928;2023-03-14T09:49:57;99362.56;;;7.33;75.05
66945;BME280;53853;51.982;5.928;2023-03-14T09:52:31;99359.25;;;7.31;75.30
66945;BME280;53853;51.982;5.928;2023-03-14T09:55:06;99378.16;;;7.36;75.18
66945;BME280;53853;51.982;5.928;2023-03-14T09:57:40;99377.13;;;7.37;74.46
66945;BME280;53853;51.982;5.928;2023-03-14T10:00:16;99380.47;;;7.39;73.99
66945;BME280;53853;51.982;5.928;2023-03-14T10:02:52;99404.47;;;7.46;75.78
66945;BME280;53853;51.982;5.928;2023-03-14T10:05:25;99409.78;;;7.46;73.22
66945;BME280;53853;51.982;5.928;2023-03-14T10:07:56;99428.34;;;7.38;71.62
66945;BME280;53853;51.982;5.928;2023-03-14T10:10:29;99428.97;;;7.32;72.08
66945;BME280;53853;51.982;5.928;2023-03-14T10:13:05;99449.53;;;7.38;73.79
66945;BME280;53853;51.982;5.928;2023-03-14T10:15:38;99453.84;;;7.47;73.47
66945;BME280;53853;51.982;5.928;2023-03-14T10:18:12;99464.97;;;7.59;73.82
66945;BME280;53853;51.982;5.928;2023-03-14T10:20:43;99474.59;;;7.60;72.31
66945;BME280;53853;51.982;5.928;2023-03-14T10:23:24;99486.00;;;7.69;73.22
66945;BME280;53853;51.982;5.928;2023-03-14T10:26:08;99498.13;;;7.71;71.63
66945;BME280;53853;51.982;5.928;2023-03-14T10:28:41;99520.97;;;7.72;70.77
66945;BME280;53853;51.982;5.928;2023-03-14T10:31:12;99515.50;;;7.74;71.94
66945;BME280;53853;51.982;5.928;2023-03-14T10:33:42;99524.47;;;7.81;69.93
66945;BME280;53853;51.982;5.928;2023-03-14T10:36:28;99538.41;;;7.91;72.16
66945;BME280;53853;51.982;5.928;2023-03-14T10:39:16;99555.81;;;8.02;72.72
66945;BME280;53853;51.982;5.928;2023-03-14T10:42:01;99563.63;;;8.04;70.10
66945;BME280;53853;51.982;5.928;2023-03-14T10:44:33;99574.75;;;8.07;71.13
66945;BME280;53853;51.982;5.928;2023-03-14T10:47:04;99596.78;;;8.08;67.96
66945;BME280;53853;51.982;5.928;2023-03-14T10:49:36;99603.59;;;8.10;70.08
66945;BME280;53853;51.982;5.928;2023-03-14T10:52:20;99613.38;;;8.10;71.49
66945;BME280;53853;51.982;5.928;2023-03-14T10:54:56;99619.31;;;7.95;69.40
66945;BME280;53853;51.982;5.928;2023-03-14T10:57:31;99640.22;;;7.90;69.76
66945;BME280;53853;51.982;5.928;2023-03-14T11:00:01;99658.94;;;7.89;71.27
66945;BME280;53853;51.982;5.928;2023-03-14T11:02:52;99681.63;;;7.91;71.72
66945;BME280;53853;51.982;5.928;2023-03-14T11:05:29;99700.81;;;7.77;72.21
66945;BME280;53853;51.982;5.928;2023-03-14T11:08:04;99697.97;;;7.62;72.16
66945;BME280;53853;51.982;5.928;2023-03-14T11:10:39;99708.84;;;7.51;72.64
66945;BME280;53853;51.982;5.928;2023-03-14T11:13:18;99727.81;;;7.38;70.77
66945;BME280;53853;51.982;5.928;2023-03-14T11:15:57;99735.72;;;7.30;71.92
66945;BME280;53853;51.982;5.928;2023-03-14T11:21:35;99748.56;;;7.42;74.36
66945;BME280;53853;51.982;5.928;2023-03-14T11:24:20;99762.38;;;7.54;74.05
66945;BME280;53853;51.982;5.928;2023-03-14T11:26:57;99787.84;;;7.47;74.00
66945;BME280;53853;51.982;5.928;2023-03-14T11:29:37;99791.91;;;7.33;75.35
66945;BME280;53853;51.982;5.928;2023-03-14T11:32:13;99819.19;;;7.07;72.77
66945;BME280;53853;51.982;5.928;2023-03-14T11:34:50;99800.94;;;6.86;72.93
66945;BME280;53853;51.982;5.928;2023-03-14T11:37:25;99805.25;;;6.87;74.59
66945;BME280;53853;51.982;5.928;2023-03-14T11:40:02;99795.34;;;6.89;74.02
66945;BME280;53853;51.982;5.928;2023-03-14T11:42:34;99815.94;;;6.96;74.11
66945;BME280;53853;51.982;5.928;2023-03-14T11:45:14;99829.09;;;7.05;73.08
66945;BME280;53853;51.982;5.928;2023-03-14T11:47:49;99837.59;;;7.09;71.54
66945;BME280;53853;51.982;5.928;2023-03-14T11:50:24;99823.63;;;7.07;69.64
66945;BME280;53853;51.982;5.928;2023-03-14T11:52:58;99845.53;;;7.09;71.61
66945;BME280;53853;51.982;5.928;2023-03-14T11:55:34;99847.03;;;7.12;71.16
66945;BME280;53853;51.982;5.928;2023-03-14T11:58:19;99846.06;;;7.13;70.79
66945;BME280;53853;51.982;5.928;2023-03-14T12:00:54;99865.13;;;7.16;65.09
66945;BME280;53853;51.982;5.928;2023-03-14T12:03:31;99872.09;;;7.17;65.88
66945;BME280;53853;51.982;5.928;2023-03-14T12:06:09;99868.84;;;7.23;65.50
66945;BME280;53853;51.982;5.928;2023-03-14T12:08:46;99873.59;;;7.38;67.51
66945;BME280;53853;51.982;5.928;2023-03-14T12:11:27;99873.00;;;7.44;62.06
66945;BME280;53853;51.982;5.928;2023-03-14T12:13:57;99890.53;;;7.45;62.07
66945;BME280;53853;51.982;5.928;2023-03-14T12:16:39;99890.25;;;7.48;62.28
66945;BME280;53853;51.982;5.928;2023-03-14T12:19:37;99900.84;;;7.48;61.01
66945;BME280;53853;51.982;5.928;2023-03-14T12:22:18;99911.06;;;7.43;60.73
66945;BME280;53853;51.982;5.928;2023-03-14T12:24:53;99924.13;;;7.36;59.83
66945;BME280;53853;51.982;5.928;2023-03-14T12:27:41;99917.66;;;7.39;59.32
66945;BME280;53853;51.982;5.928;2023-03-14T12:30:18;99929.56;;;7.53;58.50
66945;BME280;53853;51.982;5.928;2023-03-14T12:33:21;99955.16;;;7.62;55.52
66945;BME280;53853;51.982;5.928;2023-03-14T12:36:01;99940.22;;;7.61;52.42
66945;BME280;53853;51.982;5.928;2023-03-14T12:38:58;99953.63;;;7.59;52.88
66945;BME280;53853;51.982;5.928;2023-03-14T12:41:38;99953.78;;;7.58;51.68
66945;BME280;53853;51.982;5.928;2023-03-14T12:50:26;99956.59;;;7.56;47.73
66945;BME280;53853;51.982;5.928;2023-03-14T12:56:05;99977.78;;;7.56;51.41
66945;BME280;53853;51.982;5.928;2023-03-14T12:58:41;99982.78;;;7.59;51.78
66945;BME280;53853;51.982;5.928;2023-03-14T13:01:17;99976.88;;;7.66;52.23
66945;BME280;53853;51.982;5.928;2023-03-14T13:03:49;99978.78;;;7.73;52.58
66945;BME280;53853;51.982;5.928;2023-03-14T13:06:48;99986.81;;;7.82;49.61
66945;BME280;53853;51.982;5.928;2023-03-14T13:09:36;100014.56;;;7.87;50.14
66945;BME280;53853;51.982;5.928;2023-03-14T13:12:25;100022.50;;;7.87;49.77
66945;BME280;53853;51.982;5.928;2023-03-14T13:15:00;100031.16;;;7.89;52.15
66945;BME280;53853;51.982;5.928;2023-03-14T13:17:33;100046.59;;;7.94;50.83
66945;BME280;53853;51.982;5.928;2023-03-14T13:20:09;100041.97;;;7.96;49.25
66945;BME280;53853;51.982;5.928;2023-03-14T13:22:47;100030.22;;;7.98;50.37
66945;BME280;53853;51.982;5.928;2023-03-14T13:25:17;100039.72;;;8.01;50.06
66945;BME280;53853;51.982;5.928;2023-03-14T13:27:51;100051.53;;;8.07;50.71
66945;BME280;53853;51.982;5.928;2023-03-14T13:30:24;100065.16;;;8.12;49.29
66945;BME280;53853;51.982;5.928;2023-03-14T13:32:55;100070.63;;;8.10;47.42
66945;BME280;53853;51.982;5.928;2023-03-14T13:35:27;100084.69;;;8.03;49.35
66945;BME280;53853;51.982;5.928;2023-03-14T13:38:01;100084.69;;;8.03;48.77
66945;BME280;53853;51.982;5.928;2023-03-14T13:40:33;100077.63;;;7.93;48.78
66945;BME280;53853;51.982;5.928;2023-03-14T13:43:09;100104.16;;;7.93;49.26
66945;BME280;53853;51.982;5.928;2023-03-14T13:45:50;100106.50;;;7.96;48.96
66945;BME280;53853;51.982;5.928;2023-03-14T13:48:21;100102.03;;;7.97;45.69
66945;BME280;53853;51.982;5.928;2023-03-14T13:50:56;100114.00;;;8.01;46.43
66945;BME280;53853;51.982;5.928;2023-03-14T13:53:31;100134.09;;;8.04;45.70
66945;BME280;53853;51.982;5.928;2023-03-14T13:56:02;100130.47;;;8.05;46.36
66945;BME280;53853;51.982;5.928;2023-03-14T13:58:32;100134.16;;;8.12;48.39